Time;durP1;ratioP1;P1;durP2;ratioP2;P2;SDS_P1;SDS_P2;PMS_P1;PMS_P2;Temp;Humidity;BMP_temperature;BMP_pressure;BME280_temperature;BME280_humidity;BME280_pressure;Samples;Min_cycle;Max_cycle;Signal;HPM_P1;HPM_P2
2022/04/16 00:02:02;;;;;;;12.85;9.10;;;8.40;99.90;;;;;;5094481;28;20039;-62
2022/04/16 00:04:28;;;;;;;17.40;10.18;;;8.70;99.90;;;;;;5075727;28;20477;-62
2022/04/16 00:06:55;;;;;;;15.63;9.95;;;8.40;99.90;;;;;;5094353;28;20036;-62
2022/04/16 00:09:21;;;;;;;14.55;10.10;;;;;;;;;;5094246;28;20099;-62
2022/04/16 00:11:47;;;;;;;13.15;9.30;;;;;;;;;;5092497;28;20392;-62
2022/04/16 00:14:15;;;;;;;16.38;10.23;;;8.90;99.90;;;;;;5094619;28;20093;-62
2022/04/16 00:16:41;;;;;;;16.77;11.23;;;9.10;99.90;;;;;;5094150;28;20423;-62
2022/04/16 00:19:08;;;;;;;15.77;10.18;;;8.30;99.90;;;;;;5094147;28;20048;-62
2022/04/16 00:21:35;;;;;;;14.10;9.20;;;8.50;99.90;;;;;;5092860;28;20048;-62
2022/04/16 00:24:01;;;;;;;14.90;10.52;;;7.90;99.90;;;;;;5093992;28;20040;-62
2022/04/16 00:26:27;;;;;;;14.65;9.95;;;8.40;99.90;;;;;;5093462;28;20523;-62
2022/04/16 00:28:53;;;;;;;17.17;9.95;;;8.10;99.90;;;;;;5092574;28;20047;-62
2022/04/16 00:31:19;;;;;;;13.70;10.00;;;8.30;99.90;;;;;;5093802;28;20040;-62
2022/04/16 00:33:46;;;;;;;13.70;10.07;;;8.20;99.90;;;;;;5093491;28;20396;-62
2022/04/16 00:36:14;;;;;;;19.27;10.00;;;8.80;99.90;;;;;;5093827;28;20044;-62
2022/04/16 00:38:40;;;;;;;15.73;10.43;;;8.00;99.90;;;;;;5091776;28;20055;-62
2022/04/16 00:41:06;;;;;;;19.23;11.20;;;7.80;99.90;;;;;;5091853;28;20036;-62
2022/04/16 00:43:32;;;;;;;14.27;10.23;;;8.30;99.90;;;;;;5093705;28;20607;-62
2022/04/16 00:45:59;;;;;;;15.77;10.65;;;8.40;99.90;;;;;;5092723;28;20051;-62
2022/04/16 00:48:25;;;;;;;18.90;11.40;;;8.10;99.90;;;;;;5091932;28;20404;-62
2022/04/16 00:50:53;;;;;;;17.10;11.32;;;8.00;99.90;;;;;;5091894;28;20052;-62
2022/04/16 00:53:19;;;;;;;15.15;10.88;;;8.10;99.90;;;;;;5093510;28;20097;-62
2022/04/16 00:55:45;;;;;;;18.70;11.45;;;8.20;99.90;;;;;;5093283;28;20374;-62
2022/04/16 00:58:12;;;;;;;19.33;11.50;;;;;;;;;;5092000;28;20075;-62
2022/04/16 01:00:38;;;;;;;17.33;12.68;;;;;;;;;;5091718;28;20039;-62
2022/04/16 01:03:05;;;;;;;19.65;12.05;;;8.20;99.90;;;;;;5093112;28;20097;-62
2022/04/16 01:05:31;;;;;;;17.30;11.45;;;8.50;99.90;;;;;;5092899;28;20036;-62
2022/04/16 01:07:59;;;;;;;20.27;11.73;;;8.30;99.90;;;;;;5092356;28;20059;-62
2022/04/16 01:10:26;;;;;;;17.92;12.30;;;8.10;99.90;;;;;;5093760;28;20055;-62
2022/04/16 01:12:56;;;;;;;18.60;12.20;;;8.10;99.90;;;;;;5091660;28;20053;-62
2022/04/16 01:15:23;;;;;;;16.88;11.55;;;8.40;99.90;;;;;;5092939;28;20036;-62
2022/04/16 01:17:50;;;;;;;19.80;11.48;;;8.20;99.90;;;;;;5092867;28;20044;-62
2022/04/16 01:20:17;;;;;;;18.65;13.15;;;8.30;99.90;;;;;;5093088;28;20032;-62
2022/04/16 01:22:45;;;;;;;19.65;12.80;;;8.20;99.90;;;;;;5092251;28;20036;-62
2022/04/16 01:25:11;;;;;;;21.15;12.73;;;8.10;99.90;;;;;;5092724;28;20036;-62
2022/04/16 01:27:39;;;;;;;21.40;12.88;;;8.10;99.90;;;;;;5092896;28;20043;-62
2022/04/16 01:30:05;;;;;;;18.92;12.63;;;8.30;99.90;;;;;;5092338;28;20107;-62
2022/04/16 01:32:34;;;;;;;23.15;12.98;;;8.00;99.90;;;;;;5092584;28;20129;-62
2022/04/16 01:35:00;;;;;;;20.00;13.68;;;7.90;99.90;;;;;;5091649;28;20047;-62
2022/04/16 01:37:33;;;;;;;18.75;13.63;;;7.90;99.90;;;;;;5091198;28;20086;-62
2022/04/16 01:39:59;;;;;;;18.75;13.75;;;7.80;99.90;;;;;;5092252;28;20125;-62
2022/04/16 01:42:25;;;;;;;21.08;13.82;;;;;;;;;;5092181;28;20043;-62
2022/04/16 01:44:51;;;;;;;23.02;13.45;;;7.90;99.90;;;;;;5092399;28;20046;-62
2022/04/16 01:47:17;;;;;;;19.83;13.05;;;7.80;99.90;;;;;;5108113;28;20048;-62
2022/04/16 01:49:43;;;;;;;20.05;13.98;;;7.50;99.90;;;;;;5107128;28;20044;-62
2022/04/16 01:52:09;;;;;;;22.83;13.98;;;;;;;;;;5091881;28;20101;-62
2022/04/16 01:54:36;;;;;;;23.23;13.75;;;7.10;99.90;;;;;;5091011;28;20539;-62
2022/04/16 01:57:02;;;;;;;19.52;13.23;;;7.70;99.90;;;;;;5090566;28;20055;-62
2022/04/16 01:59:29;;;;;;;20.35;13.43;;;;;;;;;;5092268;28;20493;-62
2022/04/16 02:01:58;;;;;;;19.67;14.02;;;7.50;99.90;;;;;;5091631;28;20101;-62
2022/04/16 02:04:24;;;;;;;20.77;13.40;;;7.10;99.90;;;;;;5092326;28;20040;-62
2022/04/16 02:06:50;;;;;;;21.45;13.70;;;7.10;99.90;;;;;;5092339;28;20123;-62
2022/04/16 02:09:19;;;;;;;20.65;14.32;;;7.10;99.90;;;;;;5092350;28;20064;-62
2022/04/16 02:11:45;;;;;;;20.08;13.73;;;7.30;99.90;;;;;;5091787;28;20388;-62
2022/04/16 02:14:10;;;;;;;22.80;14.40;;;7.30;99.90;;;;;;5092152;28;20040;-62
2022/04/16 02:16:36;;;;;;;20.20;15.10;;;;;;;;;;5090352;28;20101;-62
2022/04/16 02:19:02;;;;;;;22.70;15.45;;;7.20;99.90;;;;;;5091777;28;20072;-62
2022/04/16 02:21:30;;;;;;;20.17;13.80;;;7.10;99.90;;;;;;5090889;28;20075;-62
2022/04/16 02:23:57;;;;;;;22.55;15.10;;;6.90;99.90;;;;;;5091889;28;20040;-62
2022/04/16 02:26:22;;;;;;;22.80;14.60;;;7.10;99.90;;;;;;5091445;28;20051;-62
2022/04/16 02:28:48;;;;;;;24.85;14.45;;;7.30;99.90;;;;;;5091854;28;20040;-62
2022/04/16 02:31:14;;;;;;;21.92;15.15;;;7.00;99.90;;;;;;5090796;28;20396;-62
2022/04/16 02:33:40;;;;;;;24.23;15.60;;;6.60;99.90;;;;;;5091530;28;20044;-62
2022/04/16 02:36:07;;;;;;;22.52;14.48;;;6.70;99.90;;;;;;5091229;28;20043;-62
2022/04/16 02:38:36;;;;;;;22.83;15.48;;;7.20;99.90;;;;;;5107826;28;20040;-62
2022/04/16 02:41:01;;;;;;;24.08;16.70;;;6.90;99.90;;;;;;5107203;28;20162;-62
2022/04/16 02:43:27;;;;;;;23.40;14.63;;;6.80;99.90;;;;;;5091880;28;20115;-62
2022/04/16 02:48:37;;;;;;;22.55;15.85;;;6.90;99.90;;;;;;5091651;28;20044;-62
2022/04/16 02:51:03;;;;;;;23.90;15.90;;;7.00;99.90;;;;;;5091626;28;20384;-62
2022/04/16 02:53:29;;;;;;;24.33;15.18;;;6.90;99.90;;;;;;5091537;28;20032;-62
2022/04/16 02:55:56;;;;;;;24.48;14.82;;;;;;;;;;5090560;28;20044;-62
2022/04/16 02:58:22;;;;;;;24.95;16.23;;;6.60;99.90;;;;;;5092097;28;20043;-62
2022/04/16 03:00:48;;;;;;;24.10;15.27;;;6.90;99.90;;;;;;5074226;28;20040;-62
2022/04/16 03:03:15;;;;;;;25.58;16.33;;;6.60;99.90;;;;;;5095617;28;20040;-62
2022/04/16 03:05:41;;;;;;;19.75;13.60;;;7.20;99.90;;;;;;5095494;28;20414;-62
2022/04/16 03:08:07;;;;;;;23.20;15.55;;;6.60;99.90;;;;;;5095145;28;20070;-62
2022/04/16 03:10:33;;;;;;;21.75;14.75;;;7.00;99.90;;;;;;5094284;28;20048;-62
2022/04/16 03:12:59;;;;;;;27.10;17.33;;;6.70;99.90;;;;;;5111186;28;20115;-62
2022/04/16 03:18:10;;;;;;;25.63;16.40;;;6.50;99.90;;;;;;5095015;28;20055;-62
2022/04/16 03:20:37;;;;;;;24.75;16.02;;;6.50;99.90;;;;;;5094107;28;20109;-62
2022/04/16 03:23:03;;;;;;;27.55;17.23;;;6.80;99.90;;;;;;5094584;28;20468;-62
2022/04/16 03:25:30;;;;;;;26.95;16.80;;;;;;;;;;5095525;28;20075;-62
2022/04/16 03:27:56;;;;;;;23.60;15.88;;;6.20;99.90;;;;;;5095176;28;20064;-62
2022/04/16 03:30:23;;;;;;;24.83;16.52;;;6.60;99.90;;;;;;5111331;28;20094;-62
2022/04/16 03:32:50;;;;;;;28.73;17.27;;;6.60;99.90;;;;;;5093698;28;20042;-62
2022/04/16 03:35:18;;;;;;;25.83;16.15;;;6.00;99.90;;;;;;5094797;28;20040;-62
2022/04/16 03:37:44;;;;;;;27.00;17.42;;;6.50;99.90;;;;;;5093831;28;20485;-62
2022/04/16 03:40:10;;;;;;;26.95;17.55;;;6.30;99.90;;;;;;5095042;28;20190;-62
2022/04/16 03:42:47;;;;;;;30.27;18.00;;;6.10;99.90;;;;;;5093246;28;20119;-62
2022/04/16 03:45:21;;;;;;;30.17;18.27;;;6.50;99.90;;;;;;5094672;28;20040;-62
2022/04/16 03:47:48;;;;;;;27.58;17.65;;;6.10;99.90;;;;;;5094557;28;20047;-62
2022/04/16 03:50:14;;;;;;;28.88;19.10;;;6.60;99.90;;;;;;5093874;28;20486;-62
2022/04/16 03:52:44;;;;;;;31.73;18.88;;;6.60;99.90;;;;;;5093829;28;20127;-62
2022/04/16 04:00:47;;;;;;;29.48;18.42;;;6.50;99.90;;;;;;5093289;28;20145;-62
2022/04/16 04:03:14;;;;;;;30.55;18.33;;;6.50;99.90;;;;;;5092683;28;20484;-62
2022/04/16 04:05:41;;;;;;;30.20;18.98;;;6.90;99.90;;;;;;5094121;28;20081;-62
2022/04/16 04:08:08;;;;;;;29.65;18.52;;;5.50;99.90;;;;;;5093714;28;20106;-62
2022/04/16 04:10:34;;;;;;;30.80;19.77;;;6.50;99.90;;;;;;5093785;28;20051;-62
2022/04/16 04:13:00;;;;;;;29.65;19.13;;;6.90;99.90;;;;;;5091526;28;20496;-62
2022/04/16 04:15:29;;;;;;;27.30;17.38;;;7.00;99.90;;;;;;5094640;28;20036;-62
2022/04/16 04:17:56;;;;;;;28.65;19.73;;;7.00;99.90;;;;;;5109012;28;20047;-62
2022/04/16 04:20:22;;;;;;;31.75;19.42;;;6.80;99.90;;;;;;5094707;28;20032;-62
2022/04/16 04:22:47;;;;;;;27.33;16.38;;;7.00;99.90;;;;;;5092827;28;20503;-62
2022/04/16 04:25:13;;;;;;;27.02;17.88;;;6.90;99.90;;;;;;5109687;28;20040;-62
2022/04/16 04:27:38;;;;;;;25.70;16.92;;;7.00;99.90;;;;;;5092984;28;20046;-62
2022/04/16 04:30:05;;;;;;;28.38;18.20;;;7.00;99.90;;;;;;5091969;28;20043;-62
2022/04/16 04:32:31;;;;;;;30.92;18.83;;;7.00;99.90;;;;;;5092148;28;20550;-62
2022/04/16 04:34:57;;;;;;;27.75;17.77;;;6.70;99.90;;;;;;5093232;28;20040;-62
2022/04/16 04:37:23;;;;;;;28.08;18.15;;;7.00;99.90;;;;;;5092240;28;20032;-62
2022/04/16 04:39:49;;;;;;;25.17;17.15;;;6.90;99.90;;;;;;5092245;28;20071;-62
2022/04/16 04:42:30;;;;;;;26.95;17.55;;;7.10;99.90;;;;;;5092798;28;20083;-62
2022/04/16 04:44:56;;;;;;;30.65;18.58;;;7.20;99.90;;;;;;5093025;28;20040;-62
2022/04/16 04:47:21;;;;;;;29.65;18.05;;;6.90;99.90;;;;;;5093127;28;20058;-62
2022/04/16 04:49:47;;;;;;;27.45;17.25;;;7.70;99.90;;;;;;5092619;28;20115;-62
2022/04/16 04:52:20;;;;;;;26.42;18.42;;;7.20;99.90;;;;;;5089240;28;20044;-62
2022/04/16 04:54:46;;;;;;;28.40;18.30;;;7.50;99.90;;;;;;5092431;28;20043;-62
2022/04/16 04:57:12;;;;;;;26.33;17.50;;;7.20;99.90;;;;;;5091948;28;20097;-62
2022/04/16 04:59:37;;;;;;;28.70;19.67;;;7.40;99.90;;;;;;5091212;28;20075;-62
2022/04/16 05:02:05;;;;;;;31.40;20.70;;;7.60;99.90;;;;;;5099215;28;20036;-62
2022/04/16 05:04:31;;;;;;;27.88;17.75;;;;;;;;;;5106398;28;20085;-62
2022/04/16 05:06:57;;;;;;;26.02;17.65;;;7.30;99.90;;;;;;5088257;28;20051;-62
2022/04/16 05:09:24;;;;;;;29.20;18.83;;;7.70;99.90;;;;;;5089435;28;20062;-62
2022/04/16 05:11:49;;;;;;;31.13;20.73;;;7.40;99.90;;;;;;5089587;28;20389;-62
2022/04/16 05:14:15;;;;;;;31.15;20.50;;;7.60;99.90;;;;;;5089068;28;20050;-61
2022/04/16 05:16:41;;;;;;;30.65;20.30;;;7.40;99.90;;;;;;5089052;28;20397;-62
2022/04/16 05:19:07;;;;;;;34.58;21.33;;;7.70;99.90;;;;;;5087936;28;20055;-61
2022/04/16 05:21:33;;;;;;;30.92;20.33;;;;;;;;;;5088469;28;20048;-61
2022/04/16 05:23:59;;;;;;;34.47;22.10;;;;;;;;;;5089313;28;20845;-61
2022/04/16 05:26:25;;;;;;;37.13;22.77;;;8.10;99.90;;;;;;5089230;28;20050;-61
2022/04/16 05:28:51;;;;;;;32.88;22.17;;;;;;;;;;5088882;28;20477;-61
2022/04/16 05:31:19;;;;;;;32.80;23.17;;;7.70;99.90;;;;;;5088479;28;20044;-61
2022/04/16 05:36:30;;;;;;;38.30;25.02;;;;;;;;;;5088701;28;20051;-61
2022/04/16 05:38:56;;;;;;;34.17;22.45;;;;;;;;;;5087897;28;20109;-61
2022/04/16 05:41:22;;;;;;;38.08;24.00;;;8.10;99.90;;;;;;5090269;28;20737;-62
2022/04/16 05:43:48;;;;;;;36.55;24.27;;;;;;;;;;5087314;28;20051;-62
2022/04/16 05:46:14;;;;;;;33.08;23.33;;;;;;;;;;5087733;28;20650;-62
2022/04/16 05:48:40;;;;;;;38.60;24.20;;;8.00;99.90;;;;;;5086801;28;20127;-61
2022/04/16 05:51:06;;;;;;;36.95;24.27;;;;;;;;;;5087488;28;20036;-61
2022/04/16 05:53:32;;;;;;;35.40;23.35;;;;;;;;;;5088982;28;20047;-60
2022/04/16 05:55:59;;;;;;;44.83;25.70;;;8.00;99.90;;;;;;5087690;28;20036;-61
2022/04/16 05:58:25;;;;;;;35.00;23.02;;;;;;;;;;5088153;28;20047;-61
2022/04/16 06:00:51;;;;;;;38.47;22.08;;;;;;;;;;5088877;28;20480;-61
2022/04/16 06:03:16;;;;;;;39.83;24.52;;;8.20;99.90;;;;;;5089055;28;20043;-62
2022/04/16 06:05:42;;;;;;;38.72;25.23;;;7.70;99.90;;;;;;5105574;28;20093;-61
2022/04/16 06:08:08;;;;;;;37.00;24.73;;;;;;;;;;5088079;28;20048;-62
2022/04/16 06:10:36;;;;;;;34.72;23.70;;;7.60;99.90;;;;;;5087278;28;20279;-62
2022/04/16 06:13:02;;;;;;;35.95;23.98;;;;;;;;;;5104483;28;20054;-61
2022/04/16 06:15:28;;;;;;;39.47;24.65;;;8.20;99.90;;;;;;5088820;28;20044;-62
2022/04/16 06:17:54;;;;;;;34.50;22.55;;;;;;;;;;5088932;28;20044;-62
2022/04/16 06:20:19;;;;;;;34.63;23.08;;;7.70;99.90;;;;;;5091727;28;20039;-62
2022/04/16 06:22:45;;;;;;;36.90;22.48;;;7.80;99.90;;;;;;5091606;28;20027;-62
2022/04/16 06:25:10;;;;;;;33.97;22.05;;;7.70;99.90;;;;;;5090695;28;20044;-60
2022/04/16 06:27:38;;;;;;;36.00;23.00;;;8.10;99.90;;;;;;5089573;28;20051;-62
2022/04/16 06:30:08;;;;;;;38.35;23.15;;;8.00;99.90;;;;;;5090307;28;20040;-62
2022/04/16 06:32:34;;;;;;;37.90;23.27;;;7.90;99.90;;;;;;5108077;28;20054;-62
2022/04/16 06:35:01;;;;;;;35.60;22.45;;;6.20;99.90;;;;;;5090355;28;20043;-63
2022/04/16 06:37:28;;;;;;;36.55;23.52;;;8.10;99.90;;;;;;5094788;28;20043;-63
2022/04/16 06:39:54;;;;;;;33.78;23.48;;;8.50;99.90;;;;;;5094662;28;20094;-63
2022/04/16 06:42:19;;;;;;;39.15;23.15;;;8.20;99.90;;;;;;5096302;28;20504;-63
2022/04/16 06:44:45;;;;;;;34.55;23.90;;;8.90;99.90;;;;;;5096014;28;20040;-63
2022/04/16 06:47:10;;;;;;;34.92;23.40;;;8.90;99.90;;;;;;5095507;28;20043;-63
2022/04/16 06:49:36;;;;;;;35.55;23.77;;;8.70;99.90;;;;;;5094416;28;20115;-62
2022/04/16 06:52:02;;;;;;;35.60;23.98;;;;;;;;;;5095470;28;20081;-62
2022/04/16 06:54:28;;;;;;;35.03;23.45;;;8.60;99.90;;;;;;5095060;28;20074;-62
2022/04/16 06:56:53;;;;;;;32.55;22.25;;;9.30;99.90;;;;;;5095182;28;20115;-62
2022/04/16 06:59:19;;;;;;;32.80;22.55;;;8.80;99.90;;;;;;5094406;28;20040;-63
2022/04/16 07:01:44;;;;;;;29.58;19.83;;;8.90;99.90;;;;;;5094756;28;20032;-63
2022/04/16 07:04:11;;;;;;;30.17;18.95;;;8.70;99.90;;;;;;5095786;28;20577;-63
2022/04/16 07:06:39;;;;;;;26.90;18.00;;;;;;;;;;5094231;28;20397;-63
2022/04/16 07:09:05;;;;;;;30.10;20.30;;;8.90;99.90;;;;;;5094307;28;20101;-62
2022/04/16 07:11:30;;;;;;;26.73;17.73;;;8.60;99.90;;;;;;5095465;28;20040;-62
2022/04/16 07:13:56;;;;;;;25.58;16.58;;;;;;;;;;5093849;28;20079;-62
2022/04/16 07:16:22;;;;;;;27.52;18.52;;;8.80;99.90;;;;;;5095420;28;20123;-63
2022/04/16 07:18:47;;;;;;;25.77;19.17;;;9.00;99.90;;;;;;5094596;28;20039;-62
2022/04/16 07:21:13;;;;;;;29.80;19.10;;;9.20;99.90;;;;;;5094987;28;20051;-63
2022/04/16 07:23:39;;;;;;;23.95;15.07;;;9.40;99.90;;;;;;5095142;28;20040;-62
2022/04/16 07:26:04;;;;;;;18.77;13.43;;;8.90;99.90;;;;;;5095353;28;20115;-62
2022/04/16 07:28:30;;;;;;;18.35;12.38;;;9.40;99.90;;;;;;5093502;28;20036;-62
2022/04/16 07:30:55;;;;;;;22.63;14.98;;;9.40;99.90;;;;;;5093699;28;20044;-63
2022/04/16 07:33:21;;;;;;;21.58;13.52;;;9.90;99.90;;;;;;5094468;28;20035;-62
2022/04/16 07:35:47;;;;;;;18.73;13.10;;;9.50;99.90;;;;;;5093438;28;20044;-62
2022/04/16 07:38:13;;;;;;;19.63;13.20;;;;;;;;;;5093613;28;20139;-62
2022/04/16 07:40:39;;;;;;;18.08;11.82;;;;;;;;;;5095117;28;20040;-62
2022/04/16 07:43:06;;;;;;;18.65;12.07;;;;;;;;;;5094423;28;20393;-63
2022/04/16 07:45:33;;;;;;;20.30;12.00;;;;;;;;;;5093767;28;20064;-63
2022/04/16 07:47:58;;;;;;;18.33;12.70;;;9.70;99.90;;;;;;5095122;28;20055;-62
2022/04/16 07:50:24;;;;;;;16.58;11.07;;;9.70;99.90;;;;;;5094848;28;20123;-62
2022/04/16 07:52:50;;;;;;;20.33;11.32;;;;;;;;;;5094625;28;20508;-62
2022/04/16 07:55:16;;;;;;;16.98;12.00;;;;;;;;;;5094589;28;20501;-62
2022/04/16 07:57:43;;;;;;;17.30;11.45;;;;;;;;;;5094665;28;20040;-62
2022/04/16 08:00:10;;;;;;;19.58;11.70;;;;;;;;;;5094451;28;20075;-62
2022/04/16 08:02:36;;;;;;;19.25;12.05;;;10.10;99.90;;;;;;5093286;28;20036;-62
2022/04/16 08:05:02;;;;;;;20.17;11.70;;;10.10;99.90;;;;;;5094818;28;20396;-62
2022/04/16 08:07:28;;;;;;;16.88;11.85;;;10.00;99.90;;;;;;5094659;28;20484;-62
2022/04/16 08:09:53;;;;;;;17.35;11.55;;;10.40;99.90;;;;;;5092442;28;20135;-63
2022/04/16 08:12:19;;;;;;;17.63;11.40;;;10.30;99.90;;;;;;5093571;28;20036;-62
2022/04/16 08:14:45;;;;;;;21.75;12.68;;;10.40;99.90;;;;;;5094137;28;20405;-62
2022/04/16 08:17:11;;;;;;;16.88;11.05;;;;;;;;;;5092525;28;20044;-62
2022/04/16 08:19:37;;;;;;;14.60;8.82;;;;;;;;;;5094240;28;20061;-62
2022/04/16 08:22:07;;;;;;;13.82;8.55;;;;;;;;;;5094362;28;20044;-62
2022/04/16 08:24:41;;;;;;;12.13;7.35;;;;;;;;;;5093466;28;20484;-62
2022/04/16 08:27:07;;;;;;;16.15;8.55;;;;;;;;;;5093952;28;20400;-62
2022/04/16 08:29:33;;;;;;;14.70;8.65;;;;;;;;;;5093224;28;20040;-63
2022/04/16 08:31:59;;;;;;;13.73;8.35;;;;;;;;;;5092461;28;20051;-62
2022/04/16 08:34:25;;;;;;;12.02;7.82;;;;;;;;;;5094294;28;20442;-62
2022/04/16 08:36:51;;;;;;;11.00;7.15;;;;;;;;;;5093512;28;20548;-62
2022/04/16 08:39:18;;;;;;;13.68;8.43;;;;;;;;;;5093752;28;20044;-62
2022/04/16 08:41:44;;;;;;;11.05;6.75;;;;;;;;;;5092381;28;20043;-62
2022/04/16 08:44:14;;;;;;;13.90;8.10;;;;;;;;;;5094147;28;20032;-62
2022/04/16 08:46:40;;;;;;;14.90;8.10;;;;;;;;;;5093304;28;20090;-62
2022/04/16 08:49:06;;;;;;;16.15;8.52;;;11.10;99.90;;;;;;5092532;28;20392;-62
2022/04/16 08:51:32;;;;;;;13.13;9.05;;;11.40;99.90;;;;;;5091852;28;20539;-63
2022/04/16 08:53:59;;;;;;;17.35;8.88;;;11.40;99.90;;;;;;5092857;28;20166;-62
2022/04/16 08:56:25;;;;;;;14.57;9.30;;;11.30;99.90;;;;;;5092396;28;20048;-62
2022/04/16 08:58:52;;;;;;;15.15;9.07;;;11.80;99.90;;;;;;5091009;28;20054;-62
2022/04/16 09:01:18;;;;;;;12.65;7.93;;;11.60;99.90;;;;;;5093788;28;20515;-62
2022/04/16 09:03:48;;;;;;;13.05;8.10;;;11.30;99.90;;;;;;5093324;28;20032;-62
2022/04/16 09:06:22;;;;;;;10.18;5.95;;;13.50;99.90;;;;;;5093000;28;20051;-62
2022/04/16 09:08:48;;;;;;;9.48;5.43;;;;;;;;;;5092975;28;20051;-63
2022/04/16 09:11:14;;;;;;;11.07;5.75;;;;;;;;;;5092364;28;20051;-62
2022/04/16 09:13:49;;;;;;;11.95;5.95;;;;;;;;;;5092907;28;20105;-62
2022/04/16 09:16:16;;;;;;;11.50;6.25;;;;;;;;;;5093085;28;20044;-63
2022/04/16 09:18:45;;;;;;;10.68;6.25;;;;;;;;;;5092243;28;20042;-62
2022/04/16 09:21:13;;;;;;;11.60;7.25;;;;;;;;;;5092442;28;20127;-63
2022/04/16 09:23:44;;;;;;;12.05;6.97;;;;;;;;;;5092917;28;20048;-62
2022/04/16 09:26:10;;;;;;;8.05;4.30;;;;;;;;;;5092245;28;20050;-62
2022/04/16 09:28:43;;;;;;;10.40;4.68;;;;;;;;;;5091598;28;20039;-62
2022/04/16 09:31:09;;;;;;;8.05;4.78;;;;;;;;;;5091701;28;20074;-62
2022/04/16 09:33:41;;;;;;;11.48;5.13;;;;;;;;;;5092888;28;20423;-63
2022/04/16 09:36:07;;;;;;;11.25;6.05;;;;;;;;;;5092893;28;20047;-62
2022/04/16 09:38:37;;;;;;;11.30;5.93;;;;;;;;;;5092669;28;20040;-62
2022/04/16 09:41:08;;;;;;;11.75;6.28;;;;;;;;;;5092416;28;20123;-62
2022/04/16 09:43:37;;;;;;;8.63;4.32;;;;;;;;;;5092848;28;20036;-63
2022/04/16 09:46:11;;;;;;;8.43;3.42;;;;;;;;;;5091471;28;20039;-62
2022/04/16 09:48:37;;;;;;;9.15;4.32;;;;;;;;;;5092311;28;20043;-63
2022/04/16 09:51:05;;;;;;;7.38;3.88;;;;;;;;;;5092461;28;20032;-63
2022/04/16 09:53:31;;;;;;;6.75;3.15;;;;;;;;;;5092474;28;20484;-62
2022/04/16 09:55:59;;;;;;;7.82;3.50;;;;;;;;;;5092009;28;20162;-62
2022/04/16 09:58:36;;;;;;;6.25;2.78;;;;;;;;;;5092636;28;20036;-63
2022/04/16 10:01:02;;;;;;;7.20;3.78;;;;;;;;;;5092383;28;20393;-62
2022/04/16 10:03:29;;;;;;;8.30;4.13;;;;;;;;;;5092449;28;20445;-63
2022/04/16 10:05:59;;;;;;;10.20;3.45;;;;;;;;;;5092092;28;20093;-63
2022/04/16 10:08:28;;;;;;;6.35;3.13;;;;;;;;;;5092335;28;20504;-63
2022/04/16 10:10:57;;;;;;;7.55;3.70;;;;;;;;;;5090695;28;20052;-63
2022/04/16 10:13:23;;;;;;;5.65;3.08;;;;;;;;;;5091055;28;20115;-63
2022/04/16 10:16:02;;;;;;;7.55;3.58;;;;;;;;;;5091077;28;20047;-63
2022/04/16 10:18:28;;;;;;;5.32;2.80;;;;;;;;;;5092668;28;20446;-63
2022/04/16 10:20:58;;;;;;;7.25;3.78;;;;;;;;;;5090533;28;20077;-63
2022/04/16 10:23:27;;;;;;;6.03;2.47;;;;;;;;;;5090720;28;20086;-63
2022/04/16 10:26:01;;;;;;;6.40;2.65;;;;;;;;;;5091629;28;20032;-63
2022/04/16 10:28:33;;;;;;;6.65;2.60;;;;;;;;;;5074730;28;20055;-63
2022/04/16 10:30:59;;;;;;;6.60;3.00;;;;;;;;;;5090893;28;20052;-63
2022/04/16 10:33:31;;;;;;;5.40;2.10;;;;;;;;;;5092152;28;20098;-63
2022/04/16 10:36:10;;;;;;;6.07;2.17;;;;;;;;;;5092067;28;20094;-63
2022/04/16 10:38:38;;;;;;;7.80;2.45;;;;;;;;;;5091500;28;20158;-62
2022/04/16 10:41:20;;;;;;;5.05;2.33;;;;;;;;;;5090907;28;20054;-63
2022/04/16 10:43:59;;;;;;;4.95;2.17;;;;;;;;;;5092085;28;20484;-62
2022/04/16 10:46:48;;;;;;;4.72;2.35;;;;;;;;;;5092334;28;20076;-62
2022/04/16 10:49:27;;;;;;;5.80;2.60;;;14.00;99.90;;;;;;5090633;28;20051;-63
2022/04/16 10:51:55;;;;;;;5.90;2.33;;;13.80;99.90;;;;;;5090056;28;20043;-63
2022/04/16 10:54:28;;;;;;;5.63;2.08;;;13.70;99.90;;;;;;5090661;28;20498;-63
2022/04/16 10:56:54;;;;;;;4.40;2.00;;;13.40;99.90;;;;;;5091394;28;20052;-62
2022/04/16 10:59:44;;;;;;;5.20;2.38;;;13.70;99.90;;;;;;5073973;28;20488;-63
2022/04/16 11:02:24;;;;;;;5.47;2.10;;;13.30;99.90;;;;;;5090433;28;20040;-62
2022/04/16 11:05:06;;;;;;;5.47;2.13;;;13.60;99.90;;;;;;5091862;28;20067;-63
2022/04/16 11:07:35;;;;;;;4.10;2.10;;;13.60;99.90;;;;;;5073678;28;20048;-63
2022/04/16 11:10:01;;;;;;;6.53;2.58;;;13.30;99.90;;;;;;5091589;28;20119;-62
2022/04/16 11:12:29;;;;;;;4.70;2.15;;;14.10;99.90;;;;;;5091600;28;20865;-63
2022/04/16 11:14:54;;;;;;;3.85;1.77;;;13.60;99.90;;;;;;5090376;28;20115;-63
2022/04/16 11:17:20;;;;;;;6.72;2.20;;;13.80;99.90;;;;;;5090875;28;20185;-63
2022/04/16 11:19:59;;;;;;;4.68;2.08;;;13.90;99.90;;;;;;5089700;28;20610;-63
2022/04/16 11:22:25;;;;;;;4.55;2.03;;;14.00;99.90;;;;;;5094040;28;20036;-62
2022/04/16 11:24:51;;;;;;;4.18;2.40;;;13.80;99.40;;;;;;5094213;28;20047;-63
2022/04/16 11:35:59;;;;;;;4.90;2.10;;;14.60;95.50;;;;;;5095007;28;20051;-63
2022/04/16 11:38:26;;;;;;;3.25;1.48;;;15.50;93.40;;;;;;5095494;28;20040;-63
2022/04/16 11:40:52;;;;;;;2.95;1.40;;;14.60;93.20;;;;;;5092994;28;20533;-63
2022/04/16 11:43:21;;;;;;;5.00;1.92;;;14.00;90.80;;;;;;5095284;28;20427;-63
2022/04/16 11:45:47;;;;;;;3.78;2.03;;;14.10;91.30;;;;;;5093814;28;20052;-63
2022/04/16 11:48:14;;;;;;;5.10;2.28;;;14.90;92.10;;;;;;5093356;28;20062;-63
2022/04/16 11:50:39;;;;;;;4.40;2.00;;;15.00;92.10;;;;;;5094708;28;20503;-63
2022/04/16 11:53:05;;;;;;;4.15;1.70;;;14.60;91.00;;;;;;5093875;28;20040;-63
2022/04/16 11:55:31;;;;;;;5.43;2.38;;;15.70;90.40;;;;;;5092952;28;20481;-63
2022/04/16 11:57:56;;;;;;;5.18;1.60;;;14.80;90.70;;;;;;5094836;28;20047;-63
2022/04/16 12:00:23;;;;;;;4.20;2.30;;;14.60;89.60;;;;;;5093829;28;20047;-63
2022/04/16 12:02:55;;;;;;;3.50;1.50;;;14.50;99.90;;;;;;5092974;28;20082;-63
2022/04/16 12:05:31;;;;;;;3.67;1.50;;;14.70;86.70;;;;;;5094794;28;20036;-63
2022/04/16 12:07:57;;;;;;;3.55;1.38;;;14.70;99.90;;;;;;5093233;28;20063;-63
2022/04/16 12:10:24;;;;;;;3.38;1.30;;;14.50;85.20;;;;;;5093429;28;20044;-63
2022/04/16 12:12:53;;;;;;;3.78;1.45;;;14.80;69.70;;;;;;5094543;28;20365;-63
2022/04/16 12:15:23;;;;;;;3.17;1.27;;;15.50;75.50;;;;;;5094695;28;20040;-63
2022/04/16 12:17:50;;;;;;;3.22;0.95;;;15.60;74.70;;;;;;5093753;28;20392;-63
2022/04/16 12:20:17;;;;;;;2.72;1.00;;;15.00;76.40;;;;;;5094403;28;20476;-63
2022/04/16 12:22:55;;;;;;;4.43;1.50;;;15.50;75.30;;;;;;5092638;28;20498;-63
2022/04/16 12:25:23;;;;;;;3.65;1.20;;;16.20;76.50;;;;;;5094516;28;20071;-63
2022/04/16 12:27:52;;;;;;;2.63;1.02;;;15.90;75.30;;;;;;5076238;28;20080;-63
2022/04/16 12:30:19;;;;;;;2.83;1.00;;;;;;;;;;5092541;28;20051;-63
2022/04/16 12:33:14;;;;;;;2.88;1.20;;;;;;;;;;5075359;28;20044;-63
2022/04/16 12:35:44;;;;;;;2.92;1.27;;;;;;;;;;5085378;28;20066;-63
2022/04/16 12:38:15;;;;;;;3.75;1.50;;;;;;;;;;5092187;28;20048;-63
2022/04/16 12:40:41;;;;;;;3.47;1.35;;;;;;;;;;5093914;28;20043;-63
2022/04/16 12:43:08;;;;;;;3.22;1.40;;;;;;;;;;5093897;28;20044;-63
2022/04/16 12:45:34;;;;;;;3.55;1.17;;;;;;;;;;5093097;28;20043;-63
2022/04/16 12:48:01;;;;;;;4.32;1.38;;;;;;;;;;5092544;28;20044;-63
2022/04/16 12:50:29;;;;;;;3.30;1.42;;;;;;;;;;5092868;28;20127;-63
2022/04/16 12:53:02;;;;;;;3.42;1.15;;;;;;;;;;5091479;28;20093;-62
2022/04/16 12:55:29;;;;;;;2.10;0.90;;;;;;;;;;5092970;28;20644;-62
2022/04/16 12:57:55;;;;;;;5.05;1.00;;;;;;;;;;5090522;28;20036;-62
2022/04/16 13:00:21;;;;;;;3.78;1.10;;;;;;;;;;5092255;28;20473;-63
2022/04/16 13:02:47;;;;;;;3.03;1.25;;;16.20;86.10;;;;;;5086258;28;20044;-62
2022/04/16 13:05:18;;;;;;;2.75;1.00;;;15.70;54.00;;;;;;5086941;28;20043;-62
2022/04/16 13:07:45;;;;;;;4.65;1.05;;;15.80;83.90;;;;;;5088269;28;20052;-62
2022/04/16 13:10:11;;;;;;;3.53;1.30;;;16.20;63.70;;;;;;5078425;28;20059;-62
2022/04/16 13:12:37;;;;;;;2.15;1.05;;;15.70;61.90;;;;;;5089600;28;20051;-62
2022/04/16 13:15:05;;;;;;;2.67;1.10;;;15.60;84.50;;;;;;5088077;28;20040;-62
2022/04/16 13:17:31;;;;;;;3.83;1.30;;;;;;;;;;5055246;28;20181;-62
2022/04/16 13:19:59;;;;;;;3.83;1.10;;;;;;;;;;5088467;28;20036;-62
2022/04/16 13:22:25;;;;;;;3.00;1.08;;;;;;;;;;5090436;28;20123;-62
2022/04/16 13:24:51;;;;;;;2.83;0.90;;;15.80;65.10;;;;;;5089156;28;20381;-62
2022/04/16 13:27:17;;;;;;;3.67;1.00;;;;;;;;;;5089240;28;20145;-62
2022/04/16 13:29:43;;;;;;;2.90;1.02;;;;;;;;;;5089736;28;20044;-62
2022/04/16 13:32:09;;;;;;;1.80;0.90;;;16.10;82.00;;;;;;5090506;28;20178;-62
2022/04/16 13:34:36;;;;;;;3.10;1.02;;;;;;;;;;5089450;28;20490;-62
2022/04/16 13:37:03;;;;;;;2.92;1.20;;;16.30;82.50;;;;;;5089711;28;20508;-62